Back to Top

Current Local METAR Station Weather Reports...

Local METAR Reports

Local METAR Reports

 

EGNJ - Humberside, United Kingdom
Distance from station: ESE 12mi, 20km
Updated: Sun, 18-Apr-2021 3:20am BST
Clear
Clear
 Wind from SW
Wind: SW 3 mph , 6 km/h
Temperature: 1°C
Dew Point: -1°C
Humidity: 87%
Barometer: 1026 hPa
Clouds: Clear
Visibility: 6 miles , 10 km
2021/04/18 02:20 EGNJ 180220Z AUTO 22003KT 9999 NCD 01/M01 Q1026
EGXV - Leconfield (aut), United Kingdom
Distance from station: NNE 16mi, 26km
Updated: Sun, 18-Apr-2021 2:50am BST
Partly Cloudy
Partly Cloudy
 Wind from W
Wind: W 2 mph , 4 km/h
Temperature: 0°C
Dew Point: -2°C
Humidity: 87%
Barometer: 1026 hPa
Clouds: Partly Cloudy
Visibility: 6 miles , 10 km
Cloud details: Partly Cloudy 5182 m
2021/04/18 01:50 EGXV 180150Z AUTO 28002KT 9999 SCT170/// M00/M02 Q1026
 
EGCN - Doncaster Sheffi, United Kingdom
Distance from station: SW 20mi, 32km
Updated: Sun, 18-Apr-2021 3:20am BST
Clear
Clear
 Wind from calm
Wind: Calm
Temperature: 0°C
Dew Point: -1°C
Humidity: 93%
Barometer: 1027 hPa
Clouds: Clear
Visibility: 6 miles , 10 km
2021/04/18 02:20 EGCN 180220Z AUTO 00000KT 9999 NCD 00/M01 Q1027
EGXP - Scampton Raf, United Kingdom
Distance from station: S 25mi, 39km
Updated: Sun, 18-Apr-2021 2:50am BST
Partly Cloudy
Partly Cloudy
 Wind from SE
Wind: SE 3 mph , 6 km/h
Temperature: 3°C
Dew Point: 0°C
Humidity: 81%
Barometer: 1026 hPa
Clouds: Partly Cloudy
Visibility: 6 miles , 10 km
Cloud details: Partly Cloudy 5182 m
2021/04/18 01:50 EGXP 180150Z AUTO 14003KT 9999 // SCT170/// 03/M00 Q1026
 
EGXW - Waddington Raf, United Kingdom
Distance from station: S 33mi, 53km
Updated: Sun, 18-Apr-2021 2:50am BST
Few Clouds
Few Clouds
 Wind from SE
Wind: SE 2 mph , 4 km/h
Temperature: 3°C
Dew Point: -1°C
Humidity: 75%
Barometer: 1026 hPa
Clouds: Few Clouds
Visibility: 6 miles , 10 km
Cloud details: Few Clouds 5486 m
2021/04/18 01:50 EGXW 180150Z AUTO 13002KT 9999 FEW180/// 03/M01 Q1026
EGXS - Donna Nook Raf, United Kingdom
Distance from station: ESE 33mi, 54km
Updated: Sun, 18-Apr-2021 2:50am BST
Overcast
Overcast
 Wind from WSW
Wind: WSW 5 mph , 7 km/h
Temperature: 2°C
Wind Chill: 0°C
Dew Point: 0°C
Humidity: 87%
Barometer: 1026 hPa
Clouds: Overcast
Visibility: 6 miles , 10 km
Cloud details: Overcast 4877 m
2021/04/18 01:50 EGXS 180150Z AUTO 24004KT 9999 // OVC160/// 02/M00 Q1026
 
EGXU - Linton-On-Ouse R, United Kingdom
Distance from station: NW 38mi, 61km
Updated: Sun, 18-Apr-2021 2:50am BST
Clear
Clear
 Wind from E
Wind: E 1 mph , 2 km/h
Temperature: 1°C
Dew Point: -2°C
Humidity: 81%
Barometer: 1026 hPa
Clouds: Clear
Visibility: 6 miles , 10 km
2021/04/18 01:50 EGXU 180150Z AUTO 08001KT 9999 NCD 01/M02 Q1026
EGXC - Coningsby Raf, United Kingdom
Distance from station: SSE 42mi, 68km
Updated: Sun, 18-Apr-2021 2:50am BST
Clear
Clear
 Wind from NNE
Wind: NNE 2 mph , 4 km/h
Temperature: 3°C
Dew Point: 0°C
Humidity: 81%
Barometer: 1026 hPa
Summary: Clear
Visibility: greater than 7 miles , 10 km
2021/04/18 01:50 EGXC 180150Z 02002KT CAVOK 03/00 Q1026 RMK BLU
 
EGYD - Cranwell Raf, United Kingdom
Distance from station: S 43mi, 69km
Updated: Sun, 18-Apr-2021 2:50am BST
Partly Cloudy
Partly Cloudy
 Wind from SW
Wind: SW 2 mph , 4 km/h
Temperature: 1°C
Dew Point: -1°C
Humidity: 87%
Barometer: 1026 hPa
Clouds: Partly Cloudy
Visibility: 6 miles , 10 km
Cloud details: Partly Cloudy 4877 m
2021/04/18 01:50 EGYD 180150Z AUTO 22002KT 9999 // SCT160/// 01/M01 Q1026
EGNM - Leeds And Bradfo, United Kingdom
Distance from station: WNW 44mi, 71km
Updated: Fri, 16-Apr-2021 4:50pm BST
NOT Current
Clear
Clear
 Wind from ENE
Wind: ENE 6 mph , 9 km/h
Temperature: 11°C
Dew Point: -2°C
Humidity: 41%
Barometer: 1029 hPa
Summary: Clear
Visibility: greater than 7 miles , 10 km
2021/04/16 15:50 EGNM 161550Z 06005KT 360V110 CAVOK 11/M02 Q1029
 
EGXZ - Topcliffe Raf, United Kingdom
Distance from station: NW 49mi, 79km
Updated: Sun, 18-Apr-2021 2:50am BST
Clear
Clear
 Wind from SSE
Wind: SSE 2 mph , 4 km/h
Temperature: 1°C
Dew Point: -2°C
Humidity: 81%
Barometer: 1026 hPa
Clouds: Clear
Visibility: 6 miles , 10 km
2021/04/18 01:50 EGXZ 180150Z AUTO 15002KT 9999 NCD 01/M02 Q1026
EGXE - Leeming Raf, United Kingdom
Distance from station: NW 57mi, 92km
Updated: Sun, 18-Apr-2021 2:50am BST
Clear
Clear
 Wind from SSW
Wind: SSW 2 mph , 4 km/h
Temperature: 2°C
Dew Point: -2°C
Humidity: 75%
Barometer: 1026 hPa
Clouds: Clear
Visibility: 6 miles , 10 km
2021/04/18 01:50 EGXE 180150Z AUTO 21002KT 9999 NCD 02/M02 Q1026
 
EGYH - Holbeach (aut), United Kingdom
Distance from station: SSE 63mi, 101km
Updated: Thu, 15-Apr-2021 7:50pm BST
NOT Current
Clear
Clear
 Wind from ENE
Wind: ENE 14 mph , 22 km/h
Temperature: 5°C
Wind Chill: 1°C
Dew Point: 2°C
Humidity: 81%
Barometer: 1033 hPa
Summary: Clear
Visibility: greater than 7 miles , 10 km
2021/04/15 18:50 EGYH 151850Z 06012KT CAVOK 05/02 Q1033 RMK BLU
EGNX - East Midlands, United Kingdom
Distance from station: SSW 65mi, 104km
Updated: Sun, 18-Apr-2021 3:20am BST
Clear
Clear
 Wind from NE
Wind: NE 2 mph , 4 km/h
Temperature: 3°C
Dew Point: -2°C
Humidity: 70%
Barometer: 1026 hPa
Summary: Clear
Visibility: greater than 7 miles , 10 km
2021/04/18 02:20 EGNX 180220Z 04002KT CAVOK 03/M02 Q1026
 
EGNV - Tees-Side, United Kingdom
Distance from station: NNW 68mi, 109km
Updated: Sat, 17-Apr-2021 4:50pm BST
NOT Current
Few Clouds
Few Clouds
 Wind from NE
Wind: NE 9 mph , 15 km/h
Temperature: 13°C
Dew Point: 1°C
Humidity: 44%
Barometer: 1027 hPa
Clouds: Few Clouds
Visibility: 6 miles , 10 km
Cloud details: Few Clouds 1372 m
2021/04/17 15:50 EGNV 171550Z 04008KT 010V080 9999 FEW045 13/01 Q1027
EGCC - Manchester Intl, United Kingdom
Distance from station: WSW 71mi, 114km
Updated: Sun, 18-Apr-2021 3:20am BST
Clear
Clear
 Wind from SE
Wind: SE 3 mph , 6 km/h
Temperature: 5°C
Dew Point: -1°C
Humidity: 66%
Barometer: 1026 hPa
Clouds: Clear
Visibility: 6 miles , 10 km
2021/04/18 02:20 EGCC 180220Z AUTO 14003KT 9999 NCD 05/M01 Q1026 NOSIG

Metar display script from Saratoga-Weather.org

Data updates at regular intervals.